Terminal Aerodrome Forecast
Issued by NWS

Home | Current Version | Previous Version | Text Only | Print | Product List | Glossary On
Versions: 1 2 3 4 5 6 7 8 9 10 11 12 13 14 15 16 17 18 19 20 21 22
000
FTUS41 KGYX 251724
TAFAUG
TAF
KAUG 251724Z 2518/2618 07007KT P6SM SCT025 OVC060
     FM252200 05008KT 2SM -RA BR BKN015 OVC025
     FM261000 07008KT 2SM -RA BR BKN003 OVC007
      TEMPO 2613/2617 1/2SM -RADZ FG BKN002 OVC007=

USA.gov is the U.S. government's official web portal to all federal, state and local government web resources and services.